createdAt,value
2023-02-19T00:01:53.401Z,10.96
2023-02-19T00:04:23.691Z,10.78
2023-02-19T00:06:51.785Z,10.79
2023-02-19T00:09:21.744Z,10.94
2023-02-19T00:11:50.194Z,10.99
2023-02-19T00:14:21.258Z,10.92
2023-02-19T00:16:49.399Z,11.04
2023-02-19T00:19:19.912Z,11.01
2023-02-19T00:21:48.539Z,10.96
2023-02-19T00:24:16.487Z,11.07
2023-02-19T00:26:47.224Z,11.15
2023-02-19T00:29:17.634Z,10.95
2023-02-19T00:31:46.605Z,11.04
2023-02-19T00:34:15.424Z,11.06
2023-02-19T00:36:44.408Z,10.90
2023-02-19T00:39:16.033Z,10.92
2023-02-19T00:41:46.538Z,10.92
2023-02-19T00:44:15.538Z,11.05
2023-02-19T00:46:47.370Z,10.94
2023-02-19T00:49:19.171Z,10.85
2023-02-19T00:51:47.744Z,10.94
2023-02-19T00:54:16.869Z,10.96
2023-02-19T00:56:46.348Z,11.02
2023-02-19T00:59:14.738Z,11.04
2023-02-19T01:01:44.603Z,10.77
2023-02-19T01:04:13.053Z,10.80
2023-02-19T01:06:42.109Z,10.91
2023-02-19T01:09:10.038Z,11.04
2023-02-19T01:11:38.119Z,11.12
2023-02-19T01:14:07.943Z,11.06
2023-02-19T01:16:36.034Z,11.05
2023-02-19T01:19:04.387Z,10.97
2023-02-19T01:21:32.736Z,11.07
2023-02-19T01:24:00.744Z,11.08
2023-02-19T01:26:32.374Z,11.19
2023-02-19T01:29:01.587Z,11.15
2023-02-19T01:31:31.693Z,11.08
2023-02-19T01:34:03.186Z,11.01
2023-02-19T01:36:34.205Z,10.88
2023-02-19T01:39:04.120Z,11.01
2023-02-19T01:41:33.296Z,10.97
2023-02-19T01:44:03.853Z,11.03
2023-02-19T01:46:34.764Z,11.02
2023-02-19T01:49:07.233Z,11.02
2023-02-19T01:51:39.168Z,11.06
2023-02-19T01:54:10.192Z,11.09
2023-02-19T01:56:40.755Z,10.97
2023-02-19T01:59:10.110Z,10.85
2023-02-19T02:01:40.608Z,10.88
2023-02-19T02:04:11.030Z,10.90
2023-02-19T02:06:44.391Z,10.74
2023-02-19T02:09:30.398Z,10.82
2023-02-19T02:11:58.523Z,10.86
2023-02-19T02:14:29.840Z,10.89
2023-02-19T02:17:10.247Z,10.90
2023-02-19T02:20:01.759Z,10.92
2023-02-19T02:22:36.786Z,10.90
2023-02-19T02:25:34.787Z,10.97
2023-02-19T02:28:24.204Z,11.04
2023-02-19T02:30:57.616Z,11.01
2023-02-19T02:33:33.513Z,10.93
2023-02-19T02:36:09.019Z,10.87
2023-02-19T02:38:41.582Z,10.92
2023-02-19T02:41:10.330Z,10.96
2023-02-19T02:43:38.728Z,11.02
2023-02-19T02:46:12.222Z,11.04
2023-02-19T02:48:45.760Z,11.10
2023-02-19T02:51:19.721Z,11.07
2023-02-19T02:54:42.490Z,11.06
2023-02-19T02:57:15.551Z,11.05
2023-02-19T02:59:50.173Z,11.05
2023-02-19T03:02:25.237Z,11.04
2023-02-19T03:05:16.430Z,11.05
2023-02-19T03:07:48.772Z,11.08
2023-02-19T03:10:21.338Z,11.12
2023-02-19T03:13:10.179Z,11.10
2023-02-19T03:16:02.487Z,11.13
2023-02-19T03:18:52.629Z,11.19
2023-02-19T03:21:23.545Z,11.16
2023-02-19T03:24:09.697Z,11.15
2023-02-19T03:26:39.866Z,11.09
2023-02-19T03:29:24.242Z,11.08
2023-02-19T03:31:58.754Z,10.91
2023-02-19T03:34:35.982Z,10.94
2023-02-19T03:37:10.595Z,10.92
2023-02-19T03:39:44.409Z,10.87
2023-02-19T03:42:25.612Z,10.92
2023-02-19T03:45:08.667Z,10.90
2023-02-19T03:47:49.876Z,10.89
2023-02-19T03:50:23.145Z,10.91
2023-02-19T03:52:59.564Z,10.93
2023-02-19T03:55:36.560Z,10.90
2023-02-19T03:58:10.106Z,10.90
2023-02-19T04:00:41.271Z,11.06
2023-02-19T04:03:18.871Z,10.87
2023-02-19T04:05:52.162Z,10.81
2023-02-19T04:08:24.927Z,10.79
2023-02-19T04:11:01.242Z,10.83
2023-02-19T04:13:36.962Z,10.80
2023-02-19T04:16:10.118Z,10.74
2023-02-19T04:18:41.187Z,10.75
2023-02-19T04:21:11.692Z,10.61
2023-02-19T04:23:44.481Z,10.65
2023-02-19T04:26:14.713Z,10.68
2023-02-19T04:28:44.127Z,10.57
2023-02-19T04:31:12.868Z,10.56
2023-02-19T04:33:41.078Z,10.60
2023-02-19T04:36:12.172Z,10.61
2023-02-19T04:38:40.323Z,10.51
2023-02-19T04:41:10.005Z,10.46
2023-02-19T04:43:38.247Z,10.49
2023-02-19T04:46:06.838Z,10.46
2023-02-19T04:48:34.743Z,10.50
2023-02-19T04:51:06.825Z,10.39
2023-02-19T04:53:37.058Z,10.39
2023-02-19T04:56:12.658Z,10.38
2023-02-19T04:58:40.813Z,10.17
2023-02-19T05:01:09.826Z,10.18
2023-02-19T05:03:38.400Z,10.22
2023-02-19T05:06:09.359Z,10.25
2023-02-19T05:08:39.026Z,10.32
2023-02-19T05:11:10.697Z,10.24
2023-02-19T05:13:39.976Z,10.27
2023-02-19T05:16:13.242Z,10.30
2023-02-19T05:18:41.842Z,10.32
2023-02-19T05:21:10.950Z,10.31
2023-02-19T05:23:41.292Z,10.34
2023-02-19T05:26:10.792Z,10.31
2023-02-19T05:28:39.467Z,10.31
2023-02-19T05:31:09.998Z,10.37
2023-02-19T05:33:38.370Z,10.39
2023-02-19T05:36:09.275Z,10.45
2023-02-19T05:38:38.226Z,10.45
2023-02-19T05:41:13.151Z,10.52
2023-02-19T05:43:42.421Z,10.45
2023-02-19T05:46:12.292Z,10.52
2023-02-19T05:48:40.349Z,10.47
2023-02-19T05:51:11.576Z,10.46
2023-02-19T05:53:40.494Z,10.50
2023-02-19T05:56:32.687Z,10.54
2023-02-19T05:59:04.208Z,10.52
2023-02-19T06:01:32.323Z,10.51
2023-02-19T06:04:00.941Z,10.51
2023-02-19T06:06:29.234Z,10.52
2023-02-19T06:08:57.513Z,10.54
2023-02-19T06:11:27.147Z,10.52
2023-02-19T06:13:55.235Z,10.36
2023-02-19T06:16:23.369Z,10.34
2023-02-19T06:18:52.211Z,10.32
2023-02-19T06:21:20.953Z,10.26
2023-02-19T06:23:49.145Z,10.24
2023-02-19T06:26:20.170Z,10.21
2023-02-19T06:28:51.526Z,10.20
2023-02-19T06:31:20.978Z,10.22
2023-02-19T06:33:50.618Z,10.19
2023-02-19T06:36:21.342Z,10.16
2023-02-19T06:38:49.427Z,10.21
2023-02-19T06:41:18.011Z,10.13
2023-02-19T06:43:46.644Z,10.18
2023-02-19T06:46:16.060Z,10.16
2023-02-19T06:48:45.814Z,10.17
2023-02-19T06:51:14.830Z,10.23
2023-02-19T06:53:42.788Z,10.29
2023-02-19T06:56:25.125Z,10.35
2023-02-19T06:58:53.725Z,10.29
2023-02-19T07:01:23.871Z,10.23
2023-02-19T07:03:52.598Z,10.22
2023-02-19T07:06:20.993Z,10.24
2023-02-19T07:08:49.256Z,10.28
2023-02-19T07:11:18.651Z,10.26
2023-02-19T07:13:47.610Z,10.35
2023-02-19T07:16:17.946Z,10.40
2023-02-19T07:18:47.689Z,10.37
2023-02-19T07:21:16.936Z,10.26
2023-02-19T07:23:45.885Z,10.35
2023-02-19T07:26:16.374Z,10.37
2023-02-19T07:28:44.929Z,10.28
2023-02-19T07:31:13.893Z,10.35
2023-02-19T07:33:43.824Z,10.33
2023-02-19T07:36:14.163Z,10.31
2023-02-19T07:38:42.293Z,10.35
2023-02-19T07:41:11.020Z,10.38
2023-02-19T07:43:40.225Z,10.42
2023-02-19T07:46:10.891Z,10.43
2023-02-19T07:48:39.972Z,10.42
2023-02-19T07:51:10.674Z,10.37
2023-02-19T07:53:40.546Z,10.38
2023-02-19T07:56:09.308Z,10.40
2023-02-19T07:58:37.488Z,10.37
2023-02-19T08:01:10.988Z,10.40
2023-02-19T08:03:39.329Z,10.43
2023-02-19T08:06:08.295Z,10.39
2023-02-19T08:08:36.283Z,10.45
2023-02-19T08:11:24.839Z,10.48
2023-02-19T08:13:53.953Z,10.39
2023-02-19T08:16:40.789Z,10.41
2023-02-19T08:19:10.894Z,10.43
2023-02-19T08:21:38.876Z,10.41
2023-02-19T08:24:07.357Z,10.48
2023-02-19T08:26:37.312Z,10.51
2023-02-19T08:29:05.857Z,10.53
2023-02-19T08:31:34.824Z,10.52
2023-02-19T08:34:03.524Z,10.52
2023-02-19T08:36:31.961Z,10.57
2023-02-19T08:39:00.122Z,10.53
2023-02-19T08:41:28.227Z,10.50
2023-02-19T08:43:57.551Z,10.52
2023-02-19T08:46:25.793Z,10.56
2023-02-19T08:48:53.939Z,10.60
2023-02-19T08:51:22.256Z,10.62
2023-02-19T08:53:50.304Z,10.60
2023-02-19T08:56:19.238Z,10.62
2023-02-19T08:58:47.264Z,10.60
2023-02-19T09:01:19.073Z,10.63
2023-02-19T09:03:47.426Z,10.69
2023-02-19T09:06:18.114Z,10.66
2023-02-19T09:08:46.296Z,10.68
2023-02-19T09:11:14.797Z,10.67
2023-02-19T09:13:43.835Z,10.65
2023-02-19T09:16:12.568Z,10.68
2023-02-19T09:18:42.597Z,10.68
2023-02-19T09:21:11.659Z,10.72
2023-02-19T09:23:40.495Z,10.72
2023-02-19T09:26:10.181Z,10.64
2023-02-19T09:28:41.970Z,10.60
2023-02-19T09:31:12.935Z,10.60
2023-02-19T09:33:45.150Z,10.53
2023-02-19T09:36:14.009Z,10.53
2023-02-19T09:38:42.358Z,10.57
2023-02-19T09:41:19.090Z,10.61
2023-02-19T09:43:49.904Z,10.64
2023-02-19T09:46:26.005Z,10.60
2023-02-19T09:48:59.237Z,10.57
2023-02-19T09:51:29.768Z,10.53
2023-02-19T09:53:58.914Z,10.59
2023-02-19T09:56:28.592Z,10.56
2023-02-19T09:58:59.509Z,10.52
2023-02-19T10:01:32.144Z,10.42
2023-02-19T10:04:01.804Z,10.48
2023-02-19T10:06:30.420Z,10.54
2023-02-19T10:09:15.364Z,10.71
2023-02-19T10:11:43.462Z,10.73
2023-02-19T10:14:18.503Z,10.75
2023-02-19T10:16:50.347Z,10.73
2023-02-19T10:19:19.704Z,10.75
2023-02-19T10:21:47.975Z,10.79
2023-02-19T10:24:22.494Z,10.86
2023-02-19T10:26:51.383Z,10.80
2023-02-19T10:29:20.078Z,10.88
2023-02-19T10:31:48.139Z,10.92
2023-02-19T10:34:22.254Z,11.00
2023-02-19T10:36:53.557Z,11.01
2023-02-19T10:39:42.160Z,10.93
2023-02-19T10:42:17.367Z,10.97
2023-02-19T10:44:48.342Z,10.95
2023-02-19T10:47:19.456Z,10.96
2023-02-19T10:49:50.836Z,11.00
2023-02-19T10:52:24.895Z,11.00
2023-02-19T10:54:55.718Z,10.94
2023-02-19T10:57:34.832Z,11.03
2023-02-19T11:00:20.265Z,11.09
2023-02-19T11:02:48.623Z,10.96
2023-02-19T11:05:21.319Z,10.85
2023-02-19T11:07:55.135Z,10.85
2023-02-19T11:10:29.495Z,10.77
2023-02-19T11:13:02.239Z,10.79
2023-02-19T11:15:33.378Z,10.76
2023-02-19T11:18:09.017Z,10.76
2023-02-19T11:20:38.569Z,10.83
2023-02-19T11:23:15.989Z,10.85
2023-02-19T11:25:47.888Z,10.95
2023-02-19T11:28:28.979Z,11.16
2023-02-19T11:30:57.070Z,11.26
2023-02-19T11:33:28.880Z,11.38
2023-02-19T11:36:16.850Z,11.34
2023-02-19T11:38:45.381Z,11.35
2023-02-19T11:41:23.914Z,11.52
2023-02-19T11:44:11.199Z,11.68
2023-02-19T11:46:48.652Z,11.51
2023-02-19T11:49:28.690Z,11.52
2023-02-19T11:52:19.875Z,11.36
2023-02-19T11:54:58.405Z,11.23
2023-02-19T11:57:41.492Z,11.21
2023-02-19T12:00:28.281Z,11.21
2023-02-19T12:03:12.312Z,11.27
2023-02-19T12:05:51.629Z,11.37
2023-02-19T12:08:43.852Z,11.56
2023-02-19T12:11:34.518Z,11.72
2023-02-19T12:14:43.290Z,11.95
2023-02-19T12:17:19.493Z,12.01
2023-02-19T12:20:03.602Z,12.04
2023-02-19T12:22:33.760Z,11.87
2023-02-19T12:25:29.893Z,11.79
2023-02-19T12:28:16.383Z,11.81
2023-02-19T12:31:10.590Z,11.70
2023-02-19T12:33:59.695Z,11.82
2023-02-19T12:36:39.271Z,11.57
2023-02-19T12:39:19.763Z,11.50
2023-02-19T12:41:58.859Z,11.38
2023-02-19T12:44:36.488Z,11.47
2023-02-19T12:47:08.476Z,11.51
2023-02-19T12:49:40.390Z,11.68
2023-02-19T12:52:14.248Z,11.65
2023-02-19T12:54:45.840Z,11.69
2023-02-19T12:57:19.459Z,11.73
2023-02-19T12:59:50.013Z,12.01
2023-02-19T13:02:23.898Z,11.74
2023-02-19T13:04:59.570Z,11.63
2023-02-19T13:07:34.759Z,11.72
2023-02-19T13:10:23.762Z,11.68
2023-02-19T13:12:55.682Z,11.77
2023-02-19T13:15:32.643Z,11.54
2023-02-19T13:18:01.957Z,11.56
2023-02-19T13:20:33.435Z,11.49
2023-02-19T13:23:24.371Z,11.48
2023-02-19T13:26:24.886Z,11.59
2023-02-19T13:29:07.511Z,11.57
2023-02-19T13:31:51.502Z,11.63
2023-02-19T13:34:26.873Z,11.82
2023-02-19T13:36:56.618Z,11.69
2023-02-19T13:39:24.778Z,11.75
2023-02-19T13:41:55.799Z,11.68
2023-02-19T13:44:28.710Z,11.72
2023-02-19T13:46:57.086Z,11.65
2023-02-19T13:49:49.781Z,11.75
2023-02-19T13:52:41.197Z,11.67
2023-02-19T13:55:49.600Z,11.59
2023-02-19T13:58:50.867Z,11.74
2023-02-19T14:01:20.967Z,11.70
2023-02-19T14:03:54.753Z,11.65
2023-02-19T14:06:23.087Z,11.77
2023-02-19T14:08:56.032Z,11.94
2023-02-19T14:12:01.455Z,11.98
2023-02-19T14:14:36.908Z,11.90
2023-02-19T14:17:29.413Z,11.96
2023-02-19T14:19:59.990Z,11.69
2023-02-19T14:23:07.344Z,11.75
2023-02-19T14:25:54.899Z,11.80
2023-02-19T14:28:35.236Z,11.78
2023-02-19T14:31:27.850Z,11.77
2023-02-19T14:34:00.446Z,11.66
2023-02-19T14:36:34.971Z,11.43
2023-02-19T14:39:05.940Z,11.33
2023-02-19T14:41:38.606Z,11.36
2023-02-19T14:44:09.493Z,11.46
2023-02-19T14:46:43.549Z,11.44
2023-02-19T14:49:20.348Z,11.46
2023-02-19T14:51:53.441Z,11.56
2023-02-19T14:54:39.004Z,11.76
2023-02-19T14:57:14.215Z,11.71
2023-02-19T14:59:52.471Z,11.53
2023-02-19T15:02:21.201Z,11.31
2023-02-19T15:04:50.847Z,11.30
2023-02-19T15:07:23.403Z,11.44
2023-02-19T15:09:54.701Z,11.67
2023-02-19T15:12:25.408Z,11.66
2023-02-19T15:14:57.117Z,11.46
2023-02-19T15:17:28.922Z,11.40
2023-02-19T15:20:00.810Z,11.56
2023-02-19T15:22:31.905Z,11.63
2023-02-19T15:25:02.018Z,11.67
2023-02-19T15:27:30.344Z,11.52
2023-02-19T15:29:58.279Z,11.77
2023-02-19T15:32:28.457Z,11.67
2023-02-19T15:34:59.649Z,11.85
2023-02-19T15:37:30.800Z,11.90
2023-02-19T15:40:01.350Z,11.96
2023-02-19T15:42:32.786Z,11.98
2023-02-19T15:45:08.347Z,12.05
2023-02-19T15:47:41.088Z,12.01
2023-02-19T15:50:14.873Z,12.00
2023-02-19T15:52:48.779Z,12.08
2023-02-19T15:55:28.330Z,12.12
2023-02-19T15:58:04.691Z,12.03
2023-02-19T16:00:40.304Z,11.85
2023-02-19T16:03:17.541Z,11.72
2023-02-19T16:05:47.600Z,11.56
2023-02-19T16:08:21.778Z,11.32
2023-02-19T16:10:57.294Z,11.21
2023-02-19T16:13:27.371Z,11.06
2023-02-19T16:16:03.097Z,11.06
2023-02-19T16:18:32.420Z,10.92
2023-02-19T16:21:04.173Z,10.97
2023-02-19T16:23:32.312Z,10.94
2023-02-19T16:26:02.813Z,10.80
2023-02-19T16:28:37.002Z,10.89
2023-02-19T16:31:08.623Z,10.54
2023-02-19T16:33:41.582Z,10.32
2023-02-19T16:36:36.437Z,10.16
2023-02-19T16:39:27.029Z,10.08
2023-02-19T16:42:16.063Z,10.19
2023-02-19T16:44:48.200Z,9.97
2023-02-19T16:47:31.833Z,9.91
2023-02-19T16:50:03.908Z,9.88
2023-02-19T16:52:34.221Z,9.87
2023-02-19T16:55:02.373Z,9.95
2023-02-19T16:57:30.665Z,10.05
2023-02-19T16:59:59.339Z,10.06
2023-02-19T17:02:27.595Z,10.00
2023-02-19T17:04:55.992Z,10.04
2023-02-19T17:07:26.006Z,9.96
2023-02-19T17:09:56.172Z,9.96
2023-02-19T17:12:24.264Z,10.06
2023-02-19T17:14:52.830Z,10.03
2023-02-19T17:17:21.223Z,10.18
2023-02-19T17:19:50.757Z,10.08
2023-02-19T17:22:19.187Z,9.84
2023-02-19T17:24:48.451Z,9.95
2023-02-19T17:27:17.778Z,9.92
2023-02-19T17:29:46.629Z,9.75
2023-02-19T17:32:15.474Z,9.60
2023-02-19T17:34:43.781Z,9.59
2023-02-19T17:37:11.765Z,9.51
2023-02-19T17:39:39.957Z,9.49
2023-02-19T17:42:08.380Z,9.40
2023-02-19T17:44:37.699Z,9.45
2023-02-19T17:47:06.688Z,9.52
2023-02-19T17:49:36.244Z,9.54
2023-02-19T17:52:04.587Z,9.54
2023-02-19T17:54:32.538Z,9.28
2023-02-19T17:57:00.640Z,9.25
2023-02-19T17:59:28.629Z,9.11
2023-02-19T18:01:58.247Z,9.09
2023-02-19T18:04:28.805Z,8.89
2023-02-19T18:06:58.615Z,9.05
2023-02-19T18:09:26.874Z,8.95
2023-02-19T18:11:54.997Z,8.79
2023-02-19T18:14:23.001Z,8.88
2023-02-19T18:16:51.727Z,9.04
2023-02-19T18:19:22.888Z,9.06
2023-02-19T18:21:50.826Z,9.00
2023-02-19T18:24:19.627Z,8.89
2023-02-19T18:26:48.329Z,8.88
2023-02-19T18:29:16.370Z,8.96
2023-02-19T18:31:45.101Z,9.08
2023-02-19T18:34:19.046Z,8.98
2023-02-19T18:36:50.625Z,8.91
2023-02-19T18:39:19.781Z,8.82
2023-02-19T18:41:49.411Z,8.86
2023-02-19T18:44:21.894Z,8.90
2023-02-19T18:46:50.328Z,8.91
2023-02-19T18:49:19.916Z,9.08
2023-02-19T18:51:49.749Z,9.18
2023-02-19T18:54:18.029Z,9.09
2023-02-19T18:56:47.750Z,9.05
2023-02-19T18:59:16.604Z,8.94
2023-02-19T19:01:45.721Z,8.81
2023-02-19T19:04:14.194Z,8.91
2023-02-19T19:06:42.589Z,8.84
2023-02-19T19:09:12.526Z,8.88
2023-02-19T19:11:41.451Z,8.98
2023-02-19T19:14:09.982Z,8.81
2023-02-19T19:16:38.013Z,8.72
2023-02-19T19:19:06.132Z,8.92
2023-02-19T19:21:34.376Z,8.96
2023-02-19T19:24:02.848Z,9.06
2023-02-19T19:26:32.221Z,8.98
2023-02-19T19:29:00.301Z,8.99
2023-02-19T19:31:35.892Z,8.86
2023-02-19T19:34:04.354Z,8.71
2023-02-19T19:36:32.259Z,8.69
2023-02-19T19:39:00.396Z,8.83
2023-02-19T19:41:28.562Z,8.87
2023-02-19T19:43:58.020Z,8.59
2023-02-19T19:46:26.248Z,8.60
2023-02-19T19:48:54.515Z,8.63
2023-02-19T19:51:22.931Z,8.55
2023-02-19T19:53:51.645Z,8.52
2023-02-19T19:56:19.752Z,8.67
2023-02-19T19:58:48.994Z,8.65
2023-02-19T20:01:21.119Z,8.70
2023-02-19T20:03:49.334Z,8.65
2023-02-19T20:06:25.248Z,8.53
2023-02-19T20:08:53.602Z,8.65
2023-02-19T20:11:21.646Z,8.54
2023-02-19T20:13:50.001Z,8.49
2023-02-19T20:16:25.251Z,8.38
2023-02-19T20:18:53.574Z,8.38
2023-02-19T20:21:21.603Z,8.27
2023-02-19T20:23:49.550Z,8.31
2023-02-19T20:26:23.228Z,8.33
2023-02-19T20:28:51.224Z,8.29
2023-02-19T20:31:21.545Z,8.21
2023-02-19T20:33:51.187Z,8.05
2023-02-19T20:36:20.173Z,7.93
2023-02-19T20:38:50.377Z,7.84
2023-02-19T20:41:18.472Z,8.01
2023-02-19T20:43:46.428Z,7.95
2023-02-19T20:46:14.930Z,7.91
2023-02-19T20:48:44.580Z,7.76
2023-02-19T20:51:12.702Z,7.98
2023-02-19T20:53:42.871Z,8.17
2023-02-19T20:56:12.561Z,8.26
2023-02-19T20:58:43.364Z,8.02
2023-02-19T21:01:12.342Z,8.02
2023-02-19T21:03:40.566Z,7.75
2023-02-19T21:06:10.263Z,7.86
2023-02-19T21:08:38.372Z,7.87
2023-02-19T21:11:06.828Z,7.98
2023-02-19T21:13:35.159Z,7.78
2023-02-19T21:16:03.540Z,7.71
2023-02-19T21:18:31.605Z,7.68
2023-02-19T21:21:00.665Z,7.77
2023-02-19T21:23:30.195Z,7.65
2023-02-19T21:25:58.340Z,7.68
2023-02-19T21:28:26.556Z,7.71
2023-02-19T21:30:54.760Z,7.77
2023-02-19T21:33:25.781Z,7.84
2023-02-19T21:35:54.434Z,7.85
2023-02-19T21:38:22.608Z,7.73
2023-02-19T21:40:52.686Z,7.66
2023-02-19T21:43:21.460Z,7.79
2023-02-19T21:45:49.644Z,7.63
2023-02-19T21:48:17.932Z,7.68
2023-02-19T21:50:46.920Z,7.70
2023-02-19T21:53:15.660Z,7.47
2023-02-19T21:55:57.831Z,7.57
2023-02-19T21:58:28.429Z,7.74
2023-02-19T22:00:58.225Z,7.62
2023-02-19T22:03:27.180Z,7.54
2023-02-19T22:05:55.706Z,7.46
2023-02-19T22:08:23.759Z,7.56
2023-02-19T22:10:51.678Z,7.74
2023-02-19T22:13:19.587Z,7.81
2023-02-19T22:15:48.875Z,7.82
2023-02-19T22:18:16.818Z,7.65
2023-02-19T22:20:44.677Z,7.64
2023-02-19T22:23:12.697Z,7.72
2023-02-19T22:25:40.938Z,7.78
2023-02-19T22:28:08.967Z,7.82
2023-02-19T22:30:37.088Z,7.64
2023-02-19T22:33:07.070Z,7.85
2023-02-19T22:35:35.174Z,7.91
2023-02-19T22:38:03.268Z,7.80
2023-02-19T22:40:31.417Z,7.60
2023-02-19T22:42:59.268Z,7.69
2023-02-19T22:45:27.149Z,7.71
2023-02-19T22:47:56.247Z,7.64
2023-02-19T22:50:26.458Z,7.65
2023-02-19T22:52:55.599Z,7.68
2023-02-19T22:55:23.618Z,7.56
2023-02-19T22:57:51.531Z,7.60
2023-02-19T23:00:22.014Z,7.52
2023-02-19T23:02:50.687Z,7.57
2023-02-19T23:05:18.656Z,7.59
2023-02-19T23:07:47.984Z,7.50
2023-02-19T23:10:16.126Z,7.59
2023-02-19T23:12:44.394Z,7.75
2023-02-19T23:15:12.781Z,7.81
2023-02-19T23:17:40.773Z,7.59
2023-02-19T23:20:10.808Z,7.59
2023-02-19T23:22:40.004Z,7.55
2023-02-19T23:25:09.781Z,7.66
2023-02-19T23:27:39.240Z,7.60
2023-02-19T23:30:08.485Z,7.49
2023-02-19T23:32:36.418Z,7.41
2023-02-19T23:35:04.908Z,7.54
2023-02-19T23:37:33.142Z,7.55
2023-02-19T23:40:01.108Z,7.41
2023-02-19T23:42:31.405Z,7.30
2023-02-19T23:44:59.350Z,7.43
2023-02-19T23:47:30.588Z,7.52
2023-02-19T23:49:58.701Z,7.60
2023-02-19T23:52:26.650Z,7.59
2023-02-19T23:54:56.414Z,7.66
2023-02-19T23:57:24.598Z,7.57
2023-02-19T23:59:54.178Z,7.70
